Temp: 15.3°C   Hum: 78%
  Wind: 0.9mph   Dir: WSW (243°)
  Rain: 0.6mm Rate: 0.0mm/hr
  Pressure: 1017.8mb

Historic data

Bath Spa Weather Station Historical Data
Daily Summary for May 18, 2022 Units:  Metric    English   Both
Daily Weekly Monthly Yearly Custom
  High: Low: Average:
Temperature: 20.1 °C 9.5 °C 13.9 °C
Dew Point: 12.9 °C 8.4 °C 10.8 °C
Humidity: 94% 62.2% 83%
Wind Speed: 17.4km/h 0km/h 5.3km/h
Wind Gust: 32.2km/h - -
Wind- - SSW
Pressure: 1020.9 hPa 1015.5 hPa -
Precipitation: 7.87 mm    
Historical Graphs
 
 
Tabular Data for May 18, 2022
Time Temperature Dew Point Pressure Wind Wind Speed Wind Gust Humidity Rainfall Rate (Hourly) solar
00:09 12.7 °C 11.1 °C 1017.2 hPa WNW 2.9 km/h 4.8 km/h 90% 0 mm 0 W/m2
00:14 12.5 °C 10.9 °C 1017.5 hPa West 3.2 km/h 9.7 km/h 90% 0 mm 0 W/m2
00:19 12.4 °C 10.8 °C 1017.5 hPa West 3.9 km/h 8 km/h 90% 0 mm 0 W/m2
00:24 12.4 °C 10.7 °C 1017.5 hPa WSW 3.9 km/h 11.3 km/h 89% 0 mm 0 W/m2
00:29 12.6 °C 10.8 °C 1017.5 hPa WSW 4 km/h 11.3 km/h 89% 0 mm 0 W/m2
00:34 12.6 °C 10.7 °C 1017.5 hPa WSW 3.1 km/h 9.7 km/h 88.2% 0 mm 0 W/m2
00:39 12.6 °C 10.7 °C 1017.8 hPa West 0.8 km/h 4.8 km/h 88% 0 mm 0 W/m2
00:44 12.4 °C 10.6 °C 1017.8 hPa West 1.3 km/h 3.2 km/h 88% 0 mm 0 W/m2
00:49 12.3 °C 10.4 °C 1017.8 hPa Calm   3.2 km/h 88% 0 mm 0 W/m2
00:54 12.3 °C 10.3 °C 1017.8 hPa West 0.3 km/h 3.2 km/h 88% 0 mm 0 W/m2
00:59 12.2 °C 10.2 °C 1017.8 hPa Calm   1.6 km/h 88% 0 mm 0 W/m2
01:04 12.1 °C 10.2 °C 1017.8 hPa West 1.6 km/h 4.8 km/h 88% 0 mm 0 W/m2
01:09 11.9 °C 10 °C 1018.2 hPa WSW 3.4 km/h 8 km/h 88% 0 mm 0 W/m2
01:14 12 °C 10.1 °C 1018.2 hPa WSW 3.4 km/h 6.4 km/h 88% 0 mm 0 W/m2
01:19 11.9 °C 10 °C 1018.2 hPa WSW 2.7 km/h 8 km/h 88% 0 mm 0 W/m2
01:24 11.8 °C 9.9 °C 1018.2 hPa WSW 1.6 km/h 8 km/h 88% 0 mm 0 W/m2
01:29 11.8 °C 9.9 °C 1018.2 hPa WSW 1 km/h 4.8 km/h 88% 0 mm 0 W/m2
01:34 11.8 °C 9.9 °C 1018.5 hPa WSW 1.9 km/h 6.4 km/h 88% 0 mm 0 W/m2
01:39 11.8 °C 9.9 °C 1018.5 hPa WSW 2.3 km/h 8 km/h 88% 0 mm 0 W/m2
01:44 11.8 °C 9.9 °C 1018.5 hPa WSW 1.8 km/h 6.4 km/h 88% 0 mm 0 W/m2
01:49 11.8 °C 9.9 °C 1018.5 hPa WSW 2.4 km/h 6.4 km/h 88.2% 0 mm 0 W/m2
01:54 11.7 °C 9.7 °C 1018.5 hPa WSW 1.9 km/h 8 km/h 88% 0 mm 0 W/m2
01:59 11.6 °C 9.7 °C 1018.8 hPa WSW 1.3 km/h 4.8 km/h 88.4% 0 mm 0 W/m2
02:04 11.4 °C 9.7 °C 1018.8 hPa WSW 1.3 km/h 4.8 km/h 89% 0 mm 0 W/m2
02:09 11.4 °C 9.7 °C 1018.8 hPa WSW 1.3 km/h 3.2 km/h 89% 0 mm 0 W/m2
02:14 11.3 °C 9.6 °C 1018.8 hPa WSW 0.6 km/h 3.2 km/h 89% 0 mm 0 W/m2
02:19 11.3 °C 9.6 °C 1018.8 hPa WSW 0.3 km/h 3.2 km/h 89% 0 mm 0 W/m2
02:24 11.2 °C 9.5 °C 1018.8 hPa WSW 0.3 km/h 3.2 km/h 89% 0 mm 0 W/m2
02:29 11.1 °C 9.4 °C 1018.8 hPa WSW 1.4 km/h 4.8 km/h 89% 0 mm 0 W/m2
02:34 11.1 °C 9.4 °C 1018.8 hPa WSW 0.6 km/h 3.2 km/h 89% 0 mm 0 W/m2
02:39 10.9 °C 9.3 °C 1018.8 hPa WSW 1.3 km/h 6.4 km/h 90% 0 mm 0 W/m2
02:44 10.9 °C 9.3 °C 1018.8 hPa WSW 1.4 km/h 6.4 km/h 90% 0 mm 0 W/m2
02:49 10.8 °C 9.2 °C 1018.8 hPa WSW 1.8 km/h 3.2 km/h 90% 0 mm 0 W/m2
02:54 10.8 °C 9.2 °C 1018.8 hPa WSW 1.8 km/h 4.8 km/h 90% 0 mm 0 W/m2
02:59 10.7 °C 9.1 °C 1018.8 hPa WSW 2.4 km/h 4.8 km/h 90% 0 mm 0 W/m2
03:04 10.7 °C 9.1 °C 1018.8 hPa WSW 1.6 km/h 3.2 km/h 90% 0 mm 0 W/m2
03:09 10.7 °C 9.1 °C 1018.8 hPa WSW 0.8 km/h 3.2 km/h 90% 0 mm 0 W/m2
03:14 10.7 °C 9.2 °C 1018.8 hPa Calm   1.6 km/h 90.8% 0 mm 0 W/m2
03:19 10.7 °C 9.2 °C 1018.8 hPa WSW 0.6 km/h 3.2 km/h 91% 0 mm 0 W/m2
03:24 10.6 °C 9.2 °C 1018.8 hPa WSW 0.8 km/h 3.2 km/h 91% 0 mm 0 W/m2
03:29 10.6 °C 9.2 °C 1018.8 hPa WSW 1 km/h 3.2 km/h 91% 0 mm 0 W/m2
03:34 10.6 °C 9.2 °C 1018.8 hPa WSW 0.8 km/h 3.2 km/h 91% 0 mm 0 W/m2
03:39 10.6 °C 9.2 °C 1018.8 hPa Calm   3.2 km/h 91% 0 mm 0 W/m2
03:44 10.6 °C 9.2 °C 1018.8 hPa WSW 0.3 km/h 1.6 km/h 91% 0 mm 0 W/m2
03:49 10.4 °C 9 °C 1018.8 hPa WSW 0.3 km/h 3.2 km/h 91% 0 mm 0 W/m2
03:54 10.3 °C 8.9 °C 1018.8 hPa Calm   1.6 km/h 91% 0 mm 0 W/m2
04:04 10.3 °C 8.8 °C 1018.8 hPa WSW 1.6 km/h 3.2 km/h 91% 0 mm 0 W/m2
04:09 10.4 °C 9.2 °C 1018.8 hPa WSW 0.3 km/h 3.2 km/h 92% 0 mm 0 W/m2
04:14 10.4 °C 9.2 °C 1018.8 hPa WSW 0.6 km/h 3.2 km/h 92% 0 mm 0 W/m2
04:19 10.4 °C 9.2 °C 1018.8 hPa WSW 0.6 km/h 3.2 km/h 92% 0 mm 0 W/m2
04:24 10.4 °C 9.2 °C 1018.8 hPa WSW 0.3 km/h 3.2 km/h 92% 0 mm 0 W/m2
04:29 10.4 °C 9.2 °C 1018.8 hPa Calm   1.6 km/h 92% 0 mm 0 W/m2
04:34 10.3 °C 9.1 °C 1018.8 hPa WSW 1.9 km/h 4.8 km/h 92% 0 mm 0 W/m2
04:39 10.1 °C 8.9 °C 1018.8 hPa WSW 1.4 km/h 4.8 km/h 92% 0 mm 0 W/m2
04:44 10 °C 8.8 °C 1018.8 hPa WSW 2.4 km/h 4.8 km/h 92% 0 mm 0 W/m2
04:49 9.9 °C 8.7 °C 1018.8 hPa WSW 0.3 km/h 3.2 km/h 92% 0 mm 0 W/m2
04:54 9.8 °C 8.6 °C 1019.2 hPa WSW 2.7 km/h 4.8 km/h 92% 0 mm 0 W/m2
04:59 9.8 °C 8.6 °C 1019.2 hPa West 1.9 km/h 6.4 km/h 92% 0 mm 0 W/m2
05:04 9.8 °C 8.6 °C 1019.2 hPa West 1.9 km/h 3.2 km/h 92% 0 mm 0 W/m2
05:09 9.8 °C 8.6 °C 1019.2 hPa Calm   3.2 km/h 92% 0 mm 0 W/m2
05:14 9.7 °C 8.5 °C 1019.2 hPa Calm     92% 0 mm 0 W/m2
05:19 9.8 °C 8.7 °C 1019.2 hPa Calm     92.6% 0 mm 5 W/m2
05:24 9.8 °C 8.7 °C 1019.2 hPa Calm     92.8% 0 mm 7 W/m2
05:29 9.6 °C 8.4 °C 1019.2 hPa Calm     92.4% 0 mm 11 W/m2
05:34 9.5 °C 8.4 °C 1019.2 hPa Calm     92.8% 0 mm 12 W/m2
05:39 9.6 °C 8.4 °C 1019.2 hPa West 1.9 km/h 6.4 km/h 93% 0 mm 16 W/m2
05:44 9.7 °C 8.6 °C 1019.5 hPa West 3.2 km/h 6.4 km/h 93% 0 mm 21 W/m2
05:49 9.7 °C 8.6 °C 1019.2 hPa West 3.5 km/h 4.8 km/h 93% 0 mm 21 W/m2
05:54 9.8 °C 8.7 °C 1019.2 hPa West 0.3 km/h 3.2 km/h 93% 0 mm 25 W/m2
05:59 9.8 °C 8.7 °C 1019.5 hPa West 0.3 km/h 3.2 km/h 93% 0 mm 25 W/m2
06:04 9.8 °C 8.7 °C 1019.5 hPa Calm   3.2 km/h 93% 0 mm 28 W/m2
06:09 9.8 °C 8.8 °C 1019.5 hPa Calm     93% 0 mm 30 W/m2
06:14 9.9 °C 8.8 °C 1019.5 hPa Calm     93% 0 mm 32 W/m2
06:19 9.9 °C 8.8 °C 1019.5 hPa Calm     93% 0 mm 33 W/m2
06:24 9.9 °C 8.8 °C 1019.5 hPa Calm     93% 0 mm 35 W/m2
06:29 9.9 °C 8.8 °C 1019.5 hPa Calm     93% 0 mm 40 W/m2
06:34 10 °C 8.9 °C 1019.5 hPa Calm     93% 0 mm 51 W/m2
06:39 10.1 °C 9 °C 1019.9 hPa West 0.6 km/h 3.2 km/h 93% 0 mm 63 W/m2
06:44 10.2 °C 9.3 °C 1019.9 hPa West 1.9 km/h 4.8 km/h 94% 0 mm 65 W/m2
06:49 10.3 °C 9.4 °C 1019.9 hPa West 1.9 km/h 4.8 km/h 94% 0 mm 58 W/m2
06:54 10.4 °C 9.5 °C 1019.9 hPa West 0.8 km/h 4.8 km/h 94% 0 mm 62 W/m2
06:59 10.4 °C 9.5 °C 1020.2 hPa West 1.1 km/h 4.8 km/h 94% 0 mm 79 W/m2
07:04 10.7 °C 9.8 °C 1020.2 hPa West 0.8 km/h 3.2 km/h 94% 0 mm 65 W/m2
07:09 10.9 °C 10 °C 1020.2 hPa West 0.8 km/h 3.2 km/h 94% 0 mm 142 W/m2
07:14 11.1 °C 10.2 °C 1020.2 hPa West 3.2 km/h 6.4 km/h 94% 0 mm 165 W/m2
07:19 11.3 °C 10.3 °C 1020.2 hPa West 1.4 km/h 8 km/h 94% 0 mm 185 W/m2
07:24 11.3 °C 10.4 °C 1020.2 hPa West 2.6 km/h 6.4 km/h 94% 0 mm 200 W/m2
07:29 11.4 °C 10.5 °C 1020.2 hPa WNW 2.3 km/h 6.4 km/h 94% 0 mm 176 W/m2
07:34 11.6 °C 10.7 °C 1020.2 hPa East 3.5 km/h 8 km/h 94% 0 mm 90 W/m2
07:39 11.6 °C 10.7 °C 1020.5 hPa ENE 3.2 km/h 11.3 km/h 94% 0 mm 271 W/m2
07:44 11.7 °C 10.8 °C 1020.5 hPa ENE 2.3 km/h 11.3 km/h 94% 0 mm 271 W/m2
07:49 11.8 °C 10.9 °C 1020.5 hPa East 6 km/h 9.7 km/h 94% 0 mm 232 W/m2
07:54 11.8 °C 10.9 °C 1020.5 hPa ESE 3.4 km/h 8 km/h 94% 0 mm 192 W/m2
07:59 11.9 °C 11 °C 1020.5 hPa ESE 0.6 km/h 6.4 km/h 94% 0 mm 135 W/m2
08:04 11.9 °C 11 °C 1020.5 hPa ESE 2.9 km/h 6.4 km/h 94% 0 mm 134 W/m2
08:09 11.8 °C 10.9 °C 1020.5 hPa ESE 4.7 km/h 8 km/h 94% 0 mm 213 W/m2
08:14 11.9 °C 11 °C 1020.5 hPa ESE 2.9 km/h 6.4 km/h 94% 0 mm 281 W/m2
08:19 12.2 °C 11.1 °C 1020.9 hPa South 7.1 km/h 12.9 km/h 93% 0 mm 278 W/m2
08:24 12.3 °C 11.2 °C 1020.9 hPa SSE 7.9 km/h 12.9 km/h 93% 0 mm 253 W/m2
08:29 12.4 °C 11.3 °C 1020.9 hPa SSE 4.7 km/h 11.3 km/h 93% 0 mm 290 W/m2
08:34 12.6 °C 11.4 °C 1020.9 hPa SSE 5.3 km/h 11.3 km/h 93% 0 mm 192 W/m2
08:44 12.7 °C 11.4 °C 1020.9 hPa SSE 5.5 km/h 9.7 km/h 92% 0 mm 169 W/m2
08:49 12.8 °C 11.4 °C 1020.9 hPa SE 4.7 km/h 9.7 km/h 91.4% 0 mm 223 W/m2
08:54 12.8 °C 11.4 °C 1020.9 hPa SSE 9.3 km/h 12.9 km/h 90.8% 0 mm 306 W/m2
08:59 12.9 °C 11.3 °C 1020.9 hPa South 5.5 km/h 9.7 km/h 90% 0 mm 387 W/m2
09:04 13.2 °C 11.6 °C 1020.9 hPa South 7.2 km/h 11.3 km/h 90% 0 mm 367 W/m2
09:09 13.4 °C 11.6 °C 1020.9 hPa South 7.7 km/h 11.3 km/h 88.8% 0 mm 415 W/m2
09:14 13.6 °C 11.6 °C 1020.9 hPa SSW 6 km/h 11.3 km/h 87.8% 0 mm 503 W/m2
09:19 13.8 °C 11.7 °C 1020.9 hPa SSW 4.3 km/h 9.7 km/h 86.8% 0 mm 582 W/m2
09:24 14.1 °C 11.7 °C 1020.9 hPa SSW 6.3 km/h 11.3 km/h 85.2% 0 mm 527 W/m2
09:29 14.1 °C 11.4 °C 1020.9 hPa South 5.6 km/h 9.7 km/h 83.8% 0 mm 381 W/m2
09:34 14.2 °C 11.4 °C 1020.9 hPa South 6.6 km/h 16.1 km/h 83% 0 mm 274 W/m2
09:39 14.3 °C 11.4 °C 1020.9 hPa South 5.8 km/h 9.7 km/h 82.6% 0 mm 295 W/m2
09:44 14.3 °C 11.3 °C 1020.9 hPa SSE 7.7 km/h 14.5 km/h 82% 0 mm 631 W/m2
09:49 14.5 °C 11.6 °C 1020.9 hPa SE 4.5 km/h 11.3 km/h 82.4% 0 mm 721 W/m2
09:54 15.1 °C 11.8 °C 1020.9 hPa SSE 7.9 km/h 17.7 km/h 81% 0 mm 635 W/m2
09:59 14.7 °C 11.3 °C 1020.9 hPa SSE 7.7 km/h 17.7 km/h 80.4% 0 mm 438 W/m2
10:04 14.7 °C 11.4 °C 1020.9 hPa SSE 7.7 km/h 17.7 km/h 80.6% 0 mm 371 W/m2
10:09 14.8 °C 11.2 °C 1020.9 hPa South 7.7 km/h 17.7 km/h 79.2% 0 mm 359 W/m2
10:14 15.1 °C 11.1 °C 1020.9 hPa SSE 6.4 km/h 11.3 km/h 77.4% 0 mm 768 W/m2
10:19 15.4 °C 11.3 °C 1020.9 hPa South 6.4 km/h 19.3 km/h 76.4% 0 mm 712 W/m2
10:24 15.7 °C 11.3 °C 1020.5 hPa SSW 6.1 km/h 11.3 km/h 75.2% 0 mm 816 W/m2
10:29 16 °C 11.2 °C 1020.9 hPa SE 13.8 km/h 24.1 km/h 73.2% 0 mm 810 W/m2
10:34 16 °C 10.9 °C 1020.5 hPa SSE 9.2 km/h 16.1 km/h 72% 0 mm 504 W/m2
10:39 16.2 °C 11.2 °C 1020.5 hPa SSE 9.7 km/h 20.9 km/h 72% 0 mm 847 W/m2
10:44 15.9 °C 10.9 °C 1020.5 hPa South 10.6 km/h 20.9 km/h 72% 0 mm 366 W/m2
10:49 16 °C 11.2 °C 1020.5 hPa South 7.7 km/h 16.1 km/h 73% 0 mm 320 W/m2
10:54 15.9 °C 11.2 °C 1020.5 hPa SW 7.9 km/h 14.5 km/h 73% 0 mm 557 W/m2
10:59 16.1 °C 11.2 °C 1020.5 hPa SSE 10 km/h 20.9 km/h 72.8% 0 mm 686 W/m2
11:04 16 °C 11.1 °C 1020.5 hPa SSE 8.5 km/h 19.3 km/h 72.2% 0 mm 933 W/m2
11:09 16.1 °C 11.1 °C 1020.5 hPa SSE 12.6 km/h 25.7 km/h 72% 0 mm 865 W/m2
11:14 16.3 °C 11 °C 1020.5 hPa South 12.9 km/h 17.7 km/h 71% 0 mm 851 W/m2
11:19 16.3 °C 11.1 °C 1020.2 hPa SSE 9.7 km/h 22.5 km/h 71% 0 mm 851 W/m2
11:24 16.9 °C 11.5 °C 1020.2 hPa South 7.9 km/h 19.3 km/h 70.6% 0 mm 905 W/m2
11:29 17.1 °C 11.4 °C 1020.5 hPa SSE 13.8 km/h 25.7 km/h 69.2% 0 mm 935 W/m2
11:34 16.7 °C 11.2 °C 1020.5 hPa SSE 11.6 km/h 22.5 km/h 69.8% 0 mm 935 W/m2
11:39 16.8 °C 11.3 °C 1020.2 hPa South 13.2 km/h 25.7 km/h 69.6% 0 mm 914 W/m2
11:44 17.1 °C 11.2 °C 1020.2 hPa South 17.1 km/h 29 km/h 68.2% 0 mm 856 W/m2
11:49 16.9 °C 11 °C 1020.2 hPa South 17.4 km/h 29 km/h 68.2% 0 mm 888 W/m2
11:54 16.7 °C 10.9 °C 1020.2 hPa South 15.4 km/h 25.7 km/h 68.8% 0 mm 555 W/m2
11:59 16.5 °C 10.9 °C 1020.2 hPa SSE 9.3 km/h 19.3 km/h 69.6% 0 mm 401 W/m2
12:04 16.8 °C 11.3 °C 1020.2 hPa South 9.8 km/h 22.5 km/h 70.4% 0 mm 469 W/m2
12:09 16.6 °C 11.3 °C 1020.2 hPa SSE 5.1 km/h 17.7 km/h 71% 0 mm 288 W/m2
12:14 16.8 °C 11.7 °C 1020.2 hPa SSE 9.7 km/h 19.3 km/h 71.4% 0 mm 362 W/m2
12:19 16.7 °C 11.4 °C 1020.2 hPa SSE 9.3 km/h 19.3 km/h 71% 0 mm 343 W/m2
12:24 16.8 °C 11.6 °C 1019.9 hPa SSW 6.4 km/h 12.9 km/h 71.2% 0 mm 415 W/m2
12:29 17.3 °C 11.7 °C 1019.9 hPa SSW 7.4 km/h 17.7 km/h 69.4% 0 mm 686 W/m2
12:34 17.4 °C 11.4 °C 1019.9 hPa South 6.9 km/h 19.3 km/h 68.2% 0 mm 826 W/m2
12:39 17.7 °C 11.6 °C 1019.9 hPa South 8.4 km/h 20.9 km/h 67.4% 0 mm 923 W/m2
12:44 17.7 °C 11.4 °C 1019.9 hPa SSW 8.7 km/h 22.5 km/h 66.4% 0 mm 826 W/m2
12:49 17.9 °C 11.5 °C 1019.5 hPa SSW 8.9 km/h 22.5 km/h 66% 0 mm 868 W/m2
12:54 18.1 °C 11.5 °C 1019.5 hPa SSW 11.6 km/h 17.7 km/h 65.5% 0 mm 858 W/m2
12:59 18.4 °C 12.3 °C 1019.5 hPa SSW 13 km/h 19.3 km/h 67.2% 0 mm 807 W/m2
13:04 18.3 °C 12.3 °C 1019.5 hPa SSE 10.3 km/h 19.3 km/h 68.2% 0 mm 844 W/m2
13:09 18.6 °C 12.8 °C 1019.5 hPa South 10 km/h 19.3 km/h 69% 0 mm 888 W/m2
13:13 18.7 °C 12.4 °C 1019.5 hPa South 11.7 km/h 25.7 km/h 67% 0 mm 802 W/m2
13:19 18.4 °C 11.7 °C 1019.2 hPa SSW 11.9 km/h 25.7 km/h 64.6% 0 mm 791 W/m2
13:24 18.9 °C 11.9 °C 1019.2 hPa South 9.2 km/h 17.7 km/h 63.8% 0 mm 798 W/m2
13:28 19.2 °C 11.9 °C 1019.2 hPa SSW 13.4 km/h 19.3 km/h 63% 0 mm 707 W/m2
13:34 19.1 °C 12 °C 1019.2 hPa South 7.9 km/h 22.5 km/h 63.2% 0 mm 765 W/m2
13:39 19.2 °C 11.9 °C 1018.8 hPa South 16.1 km/h 20.9 km/h 62.8% 0 mm 831 W/m2
13:44 19.2 °C 12.3 °C 1018.8 hPa South 12.4 km/h 25.7 km/h 64.4% 0 mm 812 W/m2
13:49 19.2 °C 12.5 °C 1018.5 hPa South 11.7 km/h 27.4 km/h 65.4% 0 mm 837 W/m2
13:54 19.4 °C 12.3 °C 1018.5 hPa South 8.4 km/h 19.3 km/h 63.6% 0 mm 881 W/m2
13:59 19.6 °C 12.4 °C 1018.8 hPa South 13.8 km/h 24.1 km/h 63% 0 mm 789 W/m2
14:04 19.1 °C 12.4 °C 1018.8 hPa SSE 13.7 km/h 24.1 km/h 65.6% 0 mm 761 W/m2
14:09 19.7 °C 12.7 °C 1018.8 hPa South 11.3 km/h 25.7 km/h 64% 0 mm 900 W/m2
14:14 19.7 °C 12.3 °C 1018.8 hPa SSW 10.6 km/h 20.9 km/h 62.2% 0 mm 935 W/m2
14:19 20.1 °C 12.6 °C 1018.8 hPa SSE 10 km/h 17.7 km/h 62.2% 0 mm 833 W/m2
14:24 19.9 °C 12.6 °C 1018.5 hPa South 7.2 km/h 17.7 km/h 62.8% 0 mm 722 W/m2
14:29 19.4 °C 12.3 °C 1018.5 hPa South 13.2 km/h 25.7 km/h 63.6% 0 mm 784 W/m2
14:34 19.3 °C 12.4 °C 1018.5 hPa SSE 11.6 km/h 19.3 km/h 64.2% 0 mm 693 W/m2
14:39 19 °C 11.9 °C 1018.5 hPa SSE 13.2 km/h 25.7 km/h 63.4% 0 mm 510 W/m2
14:44 19.2 °C 12.4 °C 1018.5 hPa SSE 10.6 km/h 22.5 km/h 64.6% 0 mm 846 W/m2
14:49 19.6 °C 12.9 °C 1018.5 hPa South 13.2 km/h 24.1 km/h 65.4% 0 mm 846 W/m2
14:54 19.3 °C 12.9 °C 1018.5 hPa SSE 11.7 km/h 25.7 km/h 66.4% 0 mm 559 W/m2
14:59 19.2 °C 12.7 °C 1018.5 hPa South 10.9 km/h 32.2 km/h 66% 0 mm 798 W/m2
15:04 18.9 °C 12.5 °C 1018.5 hPa SSE 13.2 km/h 19.3 km/h 66.4% 0 mm 519 W/m2
15:09 18.8 °C 12.4 °C 1018.5 hPa SSE 12.7 km/h 24.1 km/h 66.8% 0 mm 362 W/m2
15:14 18.5 °C 12 °C 1018.2 hPa SSE 13.2 km/h 30.6 km/h 66% 0 mm 265 W/m2
15:19 18.2 °C 11.9 °C 1018.2 hPa South 12.2 km/h 24.1 km/h 66.8% 0 mm 163 W/m2
15:24 18.2 °C 11.9 °C 1018.2 hPa SSE 8.9 km/h 20.9 km/h 67% 0 mm 206 W/m2
15:29 18 °C 11.8 °C 1018.2 hPa SSW 15.1 km/h 24.1 km/h 67.2% 0 mm 269 W/m2
15:39 18.2 °C 12 °C 1017.8 hPa South 10.6 km/h 20.9 km/h 67% 0 mm 334 W/m2
15:44 18.1 °C 11.8 °C 1018.2 hPa South 12.1 km/h 24.1 km/h 66.8% 0 mm 232 W/m2
15:49 17.9 °C 11.8 °C 1018.2 hPa South 10.3 km/h 22.5 km/h 67.8% 0 mm 172 W/m2
15:54 17.8 °C 11.8 °C 1018.2 hPa South 10.3 km/h 20.9 km/h 67.8% 0 mm 190 W/m2
15:59 17.7 °C 11.8 °C 1018.2 hPa South 9 km/h 24.1 km/h 68.8% 0 mm 214 W/m2
16:04 17.7 °C 11.7 °C 1018.2 hPa South 8.4 km/h 20.9 km/h 67.8% 0 mm 339 W/m2
16:09 17.6 °C 11.4 °C 1017.8 hPa SSE 10.9 km/h 20.9 km/h 67% 0 mm 406 W/m2
16:14 17.6 °C 11.4 °C 1017.8 hPa South 11.1 km/h 17.7 km/h 66.8% 0 mm 418 W/m2
16:19 17.6 °C 11.2 °C 1017.8 hPa South 15.4 km/h 27.4 km/h 66% 0 mm 338 W/m2
16:24 17.6 °C 11.2 °C 1017.8 hPa SSE 13.4 km/h 25.7 km/h 65.8% 0 mm 309 W/m2
16:29 17.6 °C 10.8 °C 1017.8 hPa South 9.2 km/h 25.7 km/h 64.2% 0 mm 313 W/m2
16:34 17.6 °C 10.9 °C 1017.5 hPa South 13.8 km/h 24.1 km/h 65% 0 mm 302 W/m2
16:39 17.4 °C 11.1 °C 1017.5 hPa SSW 9.2 km/h 20.9 km/h 66.4% 0 mm 244 W/m2
16:44 17.6 °C 11.4 °C 1017.5 hPa South 7.6 km/h 19.3 km/h 66.8% 0 mm 243 W/m2
16:49 17.6 °C 11.6 °C 1017.2 hPa South 9.2 km/h 20.9 km/h 68% 0 mm 193 W/m2
16:54 17.5 °C 11.9 °C 1017.5 hPa South 13.5 km/h 22.5 km/h 69.6% 0 mm 127 W/m2
16:59 17.4 °C 12.1 °C 1017.8 hPa South 8.9 km/h 17.7 km/h 70.5% 0 mm 90 W/m2
17:04 17.3 °C 11.9 °C 1017.5 hPa SSE 11.4 km/h 27.4 km/h 70.4% 0 mm 130 W/m2
17:09 17.1 °C 11.6 °C 1017.2 hPa SSE 10.3 km/h 20.9 km/h 70% 0 mm 135 W/m2
17:14 17 °C 11.3 °C 1017.2 hPa SSE 11.9 km/h 24.1 km/h 68.8% 0 mm 156 W/m2
17:19 16.9 °C 11.2 °C 1017.2 hPa SSE 10.3 km/h 20.9 km/h 69% 0 mm 162 W/m2
17:24 16.8 °C 11.4 °C 1017.2 hPa SSE 9.5 km/h 19.3 km/h 70.6% 0 mm 167 W/m2
17:29 16.7 °C 11.3 °C 1017.2 hPa SE 10.1 km/h 19.3 km/h 70.8% 0 mm 193 W/m2
17:34 16.7 °C 11 °C 1017.2 hPa SSE 9.5 km/h 19.3 km/h 69% 0 mm 197 W/m2
17:39 16.6 °C 10.5 °C 1016.8 hPa SSE 10 km/h 24.1 km/h 67.2% 0 mm 220 W/m2
17:44 16.3 °C 9.9 °C 1016.8 hPa SSE 9.7 km/h 24.1 km/h 65.8% 0 mm 190 W/m2
17:49 16.3 °C 10 °C 1016.8 hPa SSE 9.3 km/h 17.7 km/h 66.2% 0 mm 234 W/m2
17:54 16.5 °C 10.2 °C 1016.5 hPa SSE 7.2 km/h 14.5 km/h 66.2% 0 mm 213 W/m2
17:59 16.6 °C 10.2 °C 1016.5 hPa SSE 7.7 km/h 14.5 km/h 66% 0 mm 128 W/m2
18:04 16.4 °C 10.2 °C 1016.1 hPa SSE 3.4 km/h 14.5 km/h 66.6% 0 mm 62 W/m2
18:09 16.5 °C 10.7 °C 1016.1 hPa SSE 6.9 km/h 12.9 km/h 68.8% 0 mm 60 W/m2
18:14 16.3 °C 11.4 °C 1016.1 hPa SSE 5.8 km/h 14.5 km/h 73% 0 mm 62 W/m2
18:19 16.2 °C 11.8 °C 1016.5 hPa SSE 3.4 km/h 9.7 km/h 75.2% 0 mm 47 W/m2
18:24 16.1 °C 11.9 °C 1016.8 hPa SSW 6.4 km/h 11.3 km/h 76.2% 0.25 mm 18 W/m2
18:29 15.8 °C 11.9 °C 1017.2 hPa SSW 6.1 km/h 11.3 km/h 77.6% 0.51 mm 30 W/m2
18:33 15.4 °C 11.6 °C 1016.8 hPa SSW 6 km/h 14.5 km/h 78% 0.76 mm 30 W/m2
18:39 15.1 °C 11.3 °C 1016.8 hPa South 3.4 km/h 8 km/h 78% 1.27 mm 28 W/m2
18:44 14.8 °C 11.3 °C 1016.8 hPa South 3.1 km/h 6.4 km/h 79.2% 1.52 mm 32 W/m2
18:49 14.7 °C 11.4 °C 1016.8 hPa South 2.3 km/h 4.8 km/h 80.8% 1.52 mm 33 W/m2
18:54 14.6 °C 11.6 °C 1016.5 hPa South 0.6 km/h 3.2 km/h 81.8% 1.52 mm 35 W/m2
18:59 14.7 °C 11.7 °C 1016.5 hPa South 1.4 km/h 3.2 km/h 82.8% 1.52 mm 35 W/m2
19:04 14.8 °C 12.1 °C 1016.1 hPa South 1.4 km/h 3.2 km/h 83.8% 1.52 mm 49 W/m2
19:09 14.7 °C 12.2 °C 1016.1 hPa South 1.6 km/h 4.8 km/h 84.8% 1.52 mm 44 W/m2
19:14 14.7 °C 12.2 °C 1016.1 hPa South 2.1 km/h 6.4 km/h 85.4% 1.52 mm 30 W/m2
19:19 14.6 °C 12.3 °C 1016.1 hPa South 3.1 km/h 8 km/h 86% 1.52 mm 14 W/m2
19:24 14.4 °C 12.3 °C 1016.1 hPa South 2.1 km/h 6.4 km/h 86.8% 2.03 mm 9 W/m2
19:29 14.4 °C 12.3 °C 1016.1 hPa South 1.9 km/h 3.2 km/h 87% 2.03 mm 9 W/m2
19:34 14.4 °C 12.3 °C 1016.1 hPa South 1.6 km/h 4.8 km/h 87.2% 2.03 mm 14 W/m2
19:39 14.3 °C 12.3 °C 1016.1 hPa South 1.9 km/h 4.8 km/h 88% 1.78 mm 14 W/m2
19:44 14.3 °C 12.3 °C 1015.8 hPa South 0.6 km/h 4.8 km/h 88% 1.78 mm 19 W/m2
19:49 14.3 °C 12.4 °C 1016.1 hPa South 1.3 km/h 4.8 km/h 88.6% 1.52 mm 21 W/m2
19:54 14.3 °C 12.4 °C 1016.1 hPa South 0.3 km/h 1.6 km/h 88.8% 1.52 mm 21 W/m2
19:59 14.3 °C 12.4 °C 1016.1 hPa Calm   1.6 km/h 89% 1.52 mm 23 W/m2
20:04 14.3 °C 12.5 °C 1016.1 hPa South 1.4 km/h 3.2 km/h 89% 1.52 mm 19 W/m2
20:09 14.2 °C 12.5 °C 1016.1 hPa South 1.8 km/h 3.2 km/h 89.6% 1.52 mm 7 W/m2
20:14 14.1 °C 12.5 °C 1016.1 hPa South 2.4 km/h 3.2 km/h 90% 1.52 mm 7 W/m2
20:19 14.1 °C 12.5 °C 1015.8 hPa South 2.7 km/h 4.8 km/h 90% 1.52 mm 12 W/m2
20:24 14.2 °C 12.6 °C 1015.8 hPa South 1.1 km/h 3.2 km/h 90% 1.27 mm 12 W/m2
20:29 14.2 °C 12.7 °C 1015.8 hPa South 0.3 km/h 3.2 km/h 90.4% 0.76 mm 9 W/m2
20:34 14.1 °C 12.5 °C 1015.8 hPa South 0.6 km/h 3.2 km/h 90% 0.51 mm 0 W/m2
20:39 14.1 °C 12.7 °C 1015.8 hPa WSW 5 km/h 9.7 km/h 91% 0.25 mm 0 W/m2
20:44 13.9 °C 12.5 °C 1016.1 hPa WNW 10 km/h 16.1 km/h 91% 0.25 mm 0 W/m2
20:49 13.5 °C 12.1 °C 1016.5 hPa WNW 9.3 km/h 17.7 km/h 91% 0.25 mm 0 W/m2
20:54 13.2 °C 11.7 °C 1016.8 hPa WNW 14.2 km/h 25.7 km/h 91% 0.25 mm 0 W/m2
20:59 12.8 °C 11.3 °C 1016.8 hPa WNW 9.8 km/h 19.3 km/h 91% 0.51 mm 0 W/m2
21:04 12.3 °C 10.9 °C 1016.8 hPa WNW 8 km/h 16.1 km/h 91% 0.51 mm 0 W/m2
21:09 12.2 °C 10.8 °C 1016.5 hPa WNW 4.2 km/h 12.9 km/h 91% 1.78 mm 0 W/m2
21:14 11.9 °C 10.5 °C 1016.5 hPa NW 4 km/h 11.3 km/h 91% 2.29 mm 0 W/m2
21:19 11.8 °C 10.4 °C 1016.5 hPa WNW 4.8 km/h 9.7 km/h 91% 2.54 mm 0 W/m2
21:24 11.8 °C 10.3 °C 1016.8 hPa West 5 km/h 8 km/h 91% 3.56 mm 0 W/m2
21:29 11.7 °C 10.3 °C 1016.8 hPa West 4 km/h 8 km/h 91.8% 4.32 mm 0 W/m2
21:34 11.6 °C 10.3 °C 1016.8 hPa West 3.9 km/h 8 km/h 92% 4.83 mm 0 W/m2
21:39 11.6 °C 10.3 °C 1016.8 hPa WNW 7.2 km/h 12.9 km/h 92% 4.83 mm 0 W/m2
21:44 11.5 °C 10.2 °C 1016.8 hPa WNW 6.9 km/h 12.9 km/h 92% 4.83 mm 0 W/m2
21:49 11.5 °C 10.2 °C 1016.8 hPa WNW 6.4 km/h 11.3 km/h 92% 4.83 mm 0 W/m2
21:54 11.5 °C 10.2 °C 1016.8 hPa NW 5.8 km/h 12.9 km/h 92% 4.83 mm 0 W/m2
21:59 11.6 °C 10.3 °C 1016.5 hPa WNW 2.6 km/h 6.4 km/h 92% 4.83 mm 0 W/m2
22:04 11.6 °C 10.3 °C 1016.5 hPa WNW 2.4 km/h 6.4 km/h 92.2% 4.57 mm 0 W/m2
22:09 11.6 °C 10.5 °C 1016.8 hPa WNW 4.8 km/h 8 km/h 93% 4.32 mm 0 W/m2
22:14 11.6 °C 10.5 °C 1016.8 hPa WNW 1.9 km/h 6.4 km/h 93% 3.05 mm 0 W/m2
22:19 11.6 °C 10.5 °C 1016.5 hPa WNW 2.6 km/h 4.8 km/h 93% 2.54 mm 0 W/m2
22:24 11.6 °C 10.5 °C 1016.1 hPa WNW 0.3 km/h 4.8 km/h 93% 2.29 mm 0 W/m2
22:29 11.7 °C 10.6 °C 1016.5 hPa Calm   1.6 km/h 93% 1.27 mm 0 W/m2
22:34 11.8 °C 10.7 °C 1016.1 hPa WNW 1 km/h 3.2 km/h 93% 0.51 mm 0 W/m2
22:39 11.8 °C 10.7 °C 1016.1 hPa Calm   1.6 km/h 93% 0.25 mm 0 W/m2
22:44 11.8 °C 10.7 °C 1016.1 hPa Calm     93% 0.25 mm 0 W/m2
22:49 11.8 °C 10.7 °C 1016.1 hPa WNW 1 km/h 3.2 km/h 93% 0 mm 0 W/m2
22:54 11.9 °C 10.8 °C 1016.1 hPa Calm   3.2 km/h 93% 0 mm 0 W/m2
22:59 11.9 °C 10.8 °C 1016.1 hPa WNW 0.6 km/h 3.2 km/h 93% 0 mm 0 W/m2
23:04 11.9 °C 10.8 °C 1016.5 hPa Calm   1.6 km/h 93% 0 mm 0 W/m2
23:09 11.9 °C 10.8 °C 1016.1 hPa WNW 2.1 km/h 3.2 km/h 93% 0 mm 0 W/m2
23:14 12.1 °C 11 °C 1016.1 hPa WNW 3.2 km/h 4.8 km/h 93% 0 mm 0 W/m2
23:19 12.1 °C 11 °C 1015.8 hPa WNW 1.6 km/h 4.8 km/h 93% 0 mm 0 W/m2
23:24 12.1 °C 11 °C 1015.5 hPa WNW 2.1 km/h 4.8 km/h 93% 0 mm 0 W/m2
23:29 12.1 °C 10.9 °C 1015.8 hPa WNW 0.8 km/h 4.8 km/h 93% 0 mm 0 W/m2
23:34 11.9 °C 10.9 °C 1015.8 hPa Calm   1.6 km/h 93.6% 0 mm 0 W/m2
23:39 11.9 °C 11 °C 1015.8 hPa Calm     94% 0 mm 0 W/m2
23:44 12 °C 11.1 °C 1015.8 hPa WNW 0.8 km/h 3.2 km/h 94% 0 mm 0 W/m2
23:49 12.1 °C 11.2 °C 1015.8 hPa Calm     94% 0 mm 0 W/m2
23:54 12.1 °C 11.2 °C 1016.1 hPa WNW 0.6 km/h 3.2 km/h 94% 0 mm 0 W/m2
23:59 12.1 °C 11.2 °C 1016.1 hPa WNW 1.9 km/h 4.8 km/h 94% 0 mm 0 W/m2
Bath Spa Weather
Compliments of Weather Underground - 2 mb